Ocean Navigator — WSC2552 — position and weather

sailwx.info

Track history (hours):
 
Tides and Currents Weather Stations Pressure Air Temp Water Temp Dewpoint Dewpoint Depression Visibility Wind Speed Wind Dir Waves Ship Positions

Ocean Navigator

Owner: OCEAN NAVIGATOR INC, SEATTLE, WA. More information available from US FCC via Universal Licensing System and Coast Guard Vessel Documentation Center.

Last reported at 2016-Aug-20 17:00 UTC. Time now 2016-Aug-26 08:30 UTC.
Position N 58°12' W 136°54'.

Type: Towing. MMSI: 366358000.

Wind from 270 at 5 knots

Barometer 1019.0 mb
Air temperature 13.3 ° C

Date/timePositionNaut miles runAvg speedWind from/ knotsBaromVisibWave heightAir tempDewpointWater temp
2016-Aug-20 17:00N 58°12' W 136°54'24 5.4 270 / 51019.0 13.3
2016-Aug-20 12:27N 58°15' W 136°08'910.6
2016-Aug-20 11:33N 58°18' W 135°51'10 9.7
2016-Aug-20 10:29N 58°14' W 135°33'  
2016-Aug-16 19:06N 50°21' W 125°30'3 6.4
2016-Aug-16 18:33N 50°19' W 125°25'8 8.0
2016-Aug-16 17:33N 50°11' W 125°22'6 6.4
2016-Aug-16 16:33N 50°06' W 125°17'6 5.8
2016-Aug-16 15:33N 50°01' W 125°13'6 5.9
2016-Aug-16 14:33N 49°56' W 125°07'4 4.1
2016-Aug-16 13:33N 49°53' W 125°02'2 2.1
2016-Aug-16 12:33N 49°52' W 124°59'4 4.4
2016-Aug-16 11:33N 49°49' W 124°54'5 5.3
2016-Aug-16 10:33N 49°46' W 124°47'5 5.0
2016-Aug-16 09:33N 49°43' W 124°41'7 6.5
2016-Aug-16 08:33N 49°39' W 124°33'8 7.7
2016-Aug-16 07:33N 49°35' W 124°23'23 7.7
2016-Aug-16 04:33N 49°26' W 123°51'8 8.4
2016-Aug-16 03:33N 49°23' W 123°39'8 8.3
2016-Aug-16 02:33N 49°19' W 123°27'8 8.0
2016-Aug-16 01:33N 49°19' W 123°15'6 6.4
2016-Aug-16 00:33N 49°18' W 123°05'0 0.3
2016-Aug-15 23:33N 49°18' W 123°05'0 0.2
2016-Aug-15 22:33N 49°18' W 123°05'0 0.1
2016-Aug-15 21:33N 49°18' W 123°05'0 0.1
2016-Aug-15 20:33N 49°18' W 123°05'0 0.1
2016-Aug-15 19:33N 49°18' W 123°05'0 0.1
2016-Aug-15 18:33N 49°18' W 123°05'0 0.0
2016-Aug-15 17:33N 49°18' W 123°05'0 0.0
2016-Aug-15 16:33N 49°18' W 123°05'0 0.0
2016-Aug-15 15:33N 49°18' W 123°05'0 0.0
2016-Aug-15 14:34N 49°18' W 123°05'0 0.0
2016-Aug-15 13:33N 49°18' W 123°05'3 3.3
2016-Aug-15 12:33N 49°19' W 123°10'5 5.4
2016-Aug-15 11:33N 49°17' W 123°18'4 4.2
2016-Aug-15 10:33N 49°13' W 123°19'4 4.1
2016-Aug-15 09:33N 49°09' W 123°20'5 4.5
2016-Aug-15 08:33N 49°04' W 123°21'6 6.1
2016-Aug-15 07:33N 49°00' W 123°14'6 5.5
2016-Aug-15 06:33N 48°56' W 123°08'14 6.9
2016-Aug-15 04:32N 48°48' W 122°51'7 6.9
2016-Aug-15 03:34N 48°43' W 122°44'6 6.3
2016-Aug-15 02:33N 48°36' W 122°45'8 7.7
2016-Aug-15 01:33N 48°29' W 122°44'11 9.5
2016-Aug-15 00:24N 48°18' W 122°47'16 8.1
2016-Aug-14 22:27N 48°03' W 122°38'7 7.9
2016-Aug-14 21:33N 47°57' W 122°33'9 8.6
2016-Aug-14 20:33N 47°50' W 122°27'9 9.0
2016-Aug-14 19:33N 47°41' W 122°27'6 6.0
2016-Aug-14 18:33N 47°36' W 122°22'4 4.4
2016-Aug-14 17:33N 47°40' W 122°24'1 1.5
2016-Aug-14 16:33N 47°39' W 122°22'  
2016-Aug-10 22:26N 47°39' W 122°22'1 1.6
2016-Aug-10 21:33N 47°40' W 122°24'4 4.2
2016-Aug-10 20:33N 47°36' W 122°22'7 6.7
2016-Aug-10 19:33N 47°41' W 122°28'8 7.6
2016-Aug-10 18:33N 47°49' W 122°28'8 8.0
2016-Aug-10 17:33N 47°56' W 122°33'  
Track history (hours):
 
Tides and Currents Weather Stations Pressure Air Temp Water Temp Dewpoint Dewpoint Depression Visibility Wind Speed Wind Dir Waves Ship Positions

Ocean Navigator

Owner: OCEAN NAVIGATOR INC, SEATTLE, WA. More information available from US FCC via Universal Licensing System and Coast Guard Vessel Documentation Center.

Last reported at 2016-Aug-20 17:00 UTC. Time now 2016-Aug-26 08:30 UTC.
Position N 58°12' W 136°54'.

Type: Towing. MMSI: 366358000.

Wind from 270 at 5 knots

Barometer 1019.0 mb
Air temperature 13.3 ° C

Date/timePositionNaut miles runAvg speedWind from/ knotsBaromVisibWave heightAir tempDewpointWater temp
2016-Aug-20 17:00N 58°12' W 136°54'24 5.4 270 / 51019.0 13.3
2016-Aug-20 12:27N 58°15' W 136°08'910.6
2016-Aug-20 11:33N 58°18' W 135°51'10 9.7
2016-Aug-20 10:29N 58°14' W 135°33'  
2016-Aug-16 19:06N 50°21' W 125°30'3 6.4
2016-Aug-16 18:33N 50°19' W 125°25'8 8.0
2016-Aug-16 17:33N 50°11' W 125°22'6 6.4
2016-Aug-16 16:33N 50°06' W 125°17'6 5.8
2016-Aug-16 15:33N 50°01' W 125°13'6 5.9
2016-Aug-16 14:33N 49°56' W 125°07'4 4.1
2016-Aug-16 13:33N 49°53' W 125°02'2 2.1
2016-Aug-16 12:33N 49°52' W 124°59'4 4.4
2016-Aug-16 11:33N 49°49' W 124°54'5 5.3
2016-Aug-16 10:33N 49°46' W 124°47'5 5.0
2016-Aug-16 09:33N 49°43' W 124°41'7 6.5
2016-Aug-16 08:33N 49°39' W 124°33'8 7.7
2016-Aug-16 07:33N 49°35' W 124°23'23 7.7
2016-Aug-16 04:33N 49°26' W 123°51'8 8.4
2016-Aug-16 03:33N 49°23' W 123°39'8 8.3
2016-Aug-16 02:33N 49°19' W 123°27'8 8.0
2016-Aug-16 01:33N 49°19' W 123°15'6 6.4
2016-Aug-16 00:33N 49°18' W 123°05'0 0.3
2016-Aug-15 23:33N 49°18' W 123°05'0 0.2
2016-Aug-15 22:33N 49°18' W 123°05'0 0.1
2016-Aug-15 21:33N 49°18' W 123°05'0 0.1
2016-Aug-15 20:33N 49°18' W 123°05'0 0.1
2016-Aug-15 19:33N 49°18' W 123°05'0 0.1
2016-Aug-15 18:33N 49°18' W 123°05'0 0.0
2016-Aug-15 17:33N 49°18' W 123°05'0 0.0
2016-Aug-15 16:33N 49°18' W 123°05'0 0.0
2016-Aug-15 15:33N 49°18' W 123°05'0 0.0
2016-Aug-15 14:34N 49°18' W 123°05'0 0.0
2016-Aug-15 13:33N 49°18' W 123°05'3 3.3
2016-Aug-15 12:33N 49°19' W 123°10'5 5.4
2016-Aug-15 11:33N 49°17' W 123°18'4 4.2
2016-Aug-15 10:33N 49°13' W 123°19'4 4.1
2016-Aug-15 09:33N 49°09' W 123°20'5 4.5
2016-Aug-15 08:33N 49°04' W 123°21'6 6.1
2016-Aug-15 07:33N 49°00' W 123°14'6 5.5
2016-Aug-15 06:33N 48°56' W 123°08'14 6.9
2016-Aug-15 04:32N 48°48' W 122°51'7 6.9
2016-Aug-15 03:34N 48°43' W 122°44'6 6.3
2016-Aug-15 02:33N 48°36' W 122°45'8 7.7
2016-Aug-15 01:33N 48°29' W 122°44'11 9.5
2016-Aug-15 00:24N 48°18' W 122°47'16 8.1
2016-Aug-14 22:27N 48°03' W 122°38'7 7.9
2016-Aug-14 21:33N 47°57' W 122°33'9 8.6
2016-Aug-14 20:33N 47°50' W 122°27'9 9.0
2016-Aug-14 19:33N 47°41' W 122°27'6 6.0
2016-Aug-14 18:33N 47°36' W 122°22'4 4.4
2016-Aug-14 17:33N 47°40' W 122°24'1 1.5
2016-Aug-14 16:33N 47°39' W 122°22'  
2016-Aug-10 22:26N 47°39' W 122°22'1 1.6
2016-Aug-10 21:33N 47°40' W 122°24'4 4.2
2016-Aug-10 20:33N 47°36' W 122°22'7 6.7
2016-Aug-10 19:33N 47°41' W 122°28'8 7.6
2016-Aug-10 18:33N 47°49' W 122°28'8 8.0
2016-Aug-10 17:33N 47°56' W 122°33'  

Dump ship's entire track history